Flugplatz Altena-Hegenscheid

Für EDKD sind keine METAR/TAF Berichte vorhanden.
Es werden die Flugwettermeldungen vom Flugplatz Dortmund in 23 km Entfernung angezeigt.

Bericht für EDLW

vom 01.08. um 16:20 UTC

Wind 4 kt aus 270°

Sichtweite 10 km oder mehr

Code: VCSH

aufgelockert bewölkt in 2900 ft

bedeckt in 3300 ft

Temperatur 17.0°C

Taupunkt 15.0°C

Luftfeuchtigkeit 88%

Luftdruck 1009 hPa

EDLW 011620Z 27004KT 200V340 9999 VCSH SCT029 OVC033 17/15 Q1009

Prognose für EDLW

vom 01.08. um 11:00 UTC

Zwischen 12:00 UTC und 18:00 UTC

Wind 9 kt aus 270°

Sichtweite 10 km oder mehr

aufgebrochene Bewölkung in 3000 ft


Zwischen 14:00 UTC und 21:00 UTC zeitweise

Regenschauer

aufgelockert bewölkt in 1500 ft


Zwischen 15:00 UTC und 20:00 UTC zeitweise mit einer Wahrscheinlichkeit von 30%

Wind 15 kt aus 280° in Böen 25 kt

Code: TSRA

aufgebrochene Bewölkung in 1500 ft


Zwischen 18:00 und 21:00 UTC übergehend zu

Wind 4 kt aus 250°

Sichtweite 10 km oder mehr

aufgebrochene Bewölkung in 3000 ft


Zwischen 22:00 UTC und 08:00 UTC zeitweise mit einer Wahrscheinlichkeit von 40%

aufgebrochene Bewölkung in 800 ft

TAF EDLW 011100Z 0112/0212 27009KT 9999 BKN030 TEMPO 0114/0121 SHRA SCT015CB PROB30 TEMPO 0115/0120 28015G25KT TSRA BKN015CB BECMG 0118/0121 25004KT PROB40 TEMPO 0122/0208 BKN008
Impressum